Nearby METAR Reports

 

YCOM - Cooma Airport, NSW, AU
Distance from station: NE 158km
Updated: 15/08/2018 13:30
Partly cloudy
Partly cloudy
 Wind from WNW
Wind: WNW 48 km/h, Gust: 69 km/h
Temperature: 11°C
Dew Point: 1°C
Humidity: 50%
Barometer: 1007 hPa
Clouds: Partly cloudy
Visibility: 10 km
Cloud details: Partly cloudy 853 m
2018/08/15 03:30 YCOM 150330Z AUTO 30026G37KT 9999 // SCT028 11/01 Q1007
YMAY - Albury Airport, NSW, AU
Distance from station: NNW 165km
Updated: 15/08/2018 13:00
Overcast
Overcast
 Wind from N
Wind: N 6 km/h
Temperature: 10°C
Dew Point: 8°C
Humidity: 88%
Barometer: 1011 hPa
Clouds: Overcast
Visibility: 10 km
Cloud details: Partly cloudy 1372 m
Partly cloudy 1554 m
Overcast 1920 m
2018/08/15 03:00 YMAY 150300Z AUTO 01003KT 9999 // SCT045 SCT051 OVC063 10/08 Q1011
 
YWGT - Wangaratta Airport, Victoria, AU
Distance from station: NW 172km
Updated: 15/08/2018 13:00
Overcast
Overcast
 Wind from N
Wind: N 15 km/h
Temperature: 11°C
Dew Point: 6°C
Humidity: 72%
Barometer: 1010 hPa
Clouds: Overcast
Visibility: 10 km
Cloud details: Partly cloudy 1463 m
Mostly cloudy 2103 m
Overcast 3658 m
2018/08/15 03:00 YWGT 150300Z AUTO 36008KT 9999 // SCT048 BKN069 OVC120 11/06 Q1010
YMER - Merimbula Airport, NSW, AU
Distance from station: ENE 192km
Updated: 15/08/2018 13:30
Clear
Clear
 Wind from W
Wind: W 33 km/h, Gust: 54 km/h
Temperature: 23°C
Dew Point: 3°C
Humidity: 27%
Barometer: 1002 hPa
Clouds: Clear
Visibility: 10 km
2018/08/15 03:30 YMER 150330Z AUTO 28018G29KT 9999 // NCD 23/03 Q1002
 
YSWG - Wagga Wagga Airport, NSW, AU
Distance from station: N 251km
Updated: 15/08/2018 13:00
Clear
Clear
 Wind from NW
Wind: NW 19 km/h
Temperature: 17°C
Dew Point: 4°C
Humidity: 42%
Barometer: 1012 hPa
Clouds: Clear
Visibility: 10 km
2018/08/15 03:00 YSWG 150300Z AUTO 32010KT 9999 // NCD 17/04 Q1012
YMEN - Essendon Airport, Victoria, AU
Distance from station: W 259km
Updated: 15/08/2018 13:00
Partly cloudy
Partly cloudy
 Wind from W
Wind: W 39 km/h, Gust: 57 km/h
Temperature: 17°C
Dew Point: -2°C
Humidity: 27%
Barometer: 1005 hPa
Clouds: Partly cloudy
Visibility: 10 km
Cloud details: Partly cloudy 2012 m
Partly cloudy 2286 m
2018/08/15 03:00 YMEN 150300Z AUTO 28021G31KT 9999 // SCT066 SCT075 17/M02 Q1005
 
YSCB - Canberra Airport, ACT, AU
Distance from station: NNE 263km
Updated: 15/08/2018 13:00
Partly cloudy
Partly cloudy
 Wind from NW
Wind: NW 37 km/h
Temperature: 15°C
Dew Point: 2°C
Humidity: 42%
Barometer: 1011 hPa
Clouds: Partly cloudy
Visibility: 10 km
Cloud details: Few Clouds 1219 m
Partly cloudy 5486 m
2018/08/15 03:00 YSCB 150300Z 32020KT 9999 FEW040 SCT180 15/02 Q1011 FM0300 MOD/SEV TURB BLW 5000FT
YMML - Melbourne Airport, Victoria, AU
Distance from station: W 266km
Updated: 15/08/2018 13:00
Clear
Clear
 Wind from W
Wind: W 35 km/h
Temperature: 17°C
Dew Point: -2°C
Humidity: 27%
Barometer: 1005 hPa
Summary: Clear
Visibility: greater than 10 km
2018/08/15 03:00 YMML 150300Z 27019KT CAVOK 17/M02 Q1005